createdAt,value
2018-02-17T00:00:59.830Z,99.90
2018-02-17T00:03:25.859Z,99.90
2018-02-17T00:05:51.814Z,99.90
2018-02-17T00:08:18.497Z,99.90
2018-02-17T00:10:45.226Z,99.90
2018-02-17T00:13:11.222Z,99.90
2018-02-17T00:15:37.204Z,99.90
2018-02-17T00:18:03.958Z,99.90
2018-02-17T00:20:29.907Z,99.90
2018-02-17T00:22:56.599Z,99.90
2018-02-17T00:25:22.587Z,99.90
2018-02-17T00:27:48.537Z,99.90
2018-02-17T00:30:15.257Z,99.90
2018-02-17T00:32:41.222Z,99.90
2018-02-17T00:35:07.969Z,99.90
2018-02-17T00:37:34.792Z,99.90
2018-02-17T00:40:00.782Z,99.90
2018-02-17T00:42:27.538Z,99.90
2018-02-17T00:44:54.258Z,99.90
2018-02-17T00:47:20.243Z,99.90
2018-02-17T00:49:46.934Z,99.90
2018-02-17T00:52:12.913Z,99.90
2018-02-17T00:54:38.893Z,99.90
2018-02-17T00:57:04.927Z,99.90
2018-02-17T00:59:30.912Z,99.90
2018-02-17T01:01:56.894Z,99.90
2018-02-17T01:04:22.850Z,99.90
2018-02-17T01:06:48.838Z,99.90
2018-02-17T01:09:14.861Z,99.90
2018-02-17T01:11:40.805Z,99.90
2018-02-17T01:14:07.541Z,99.90
2018-02-17T01:16:33.550Z,99.90
2018-02-17T01:18:59.510Z,99.90
2018-02-17T01:21:25.489Z,99.90
2018-02-17T01:23:52.192Z,99.90
2018-02-17T01:26:18.178Z,99.90
2018-02-17T01:28:44.901Z,99.90
2018-02-17T01:31:10.853Z,99.90
2018-02-17T01:33:37.602Z,99.90
2018-02-17T01:36:03.567Z,99.90
2018-02-17T01:38:30.294Z,99.90
2018-02-17T01:40:56.246Z,99.90
2018-02-17T01:43:22.952Z,99.90
2018-02-17T01:45:48.958Z,99.90
2018-02-17T01:48:14.957Z,99.90
2018-02-17T01:50:40.902Z,99.90
2018-02-17T01:53:08.395Z,99.90
2018-02-17T01:55:35.137Z,99.90
2018-02-17T01:58:01.861Z,99.90
2018-02-17T02:00:27.810Z,99.90
2018-02-17T02:02:53.791Z,99.90
2018-02-17T02:05:19.745Z,99.90
2018-02-17T02:07:45.734Z,99.90
2018-02-17T02:10:12.425Z,99.90
2018-02-17T02:12:38.430Z,99.90
2018-02-17T02:15:05.183Z,99.90
2018-02-17T02:17:31.929Z,99.90
2018-02-17T02:19:58.612Z,99.90
2018-02-17T02:22:24.589Z,99.90
2018-02-17T02:24:50.560Z,99.90
2018-02-17T02:27:17.295Z,99.90
2018-02-17T02:29:43.253Z,99.90
2018-02-17T02:32:09.937Z,99.90
2018-02-17T02:34:35.933Z,99.90
2018-02-17T02:37:02.629Z,99.90
2018-02-17T02:39:28.608Z,99.90
2018-02-17T02:41:54.582Z,99.90
2018-02-17T02:44:20.561Z,99.90
2018-02-17T02:46:46.507Z,99.90
2018-02-17T02:49:13.939Z,99.90
2018-02-17T02:51:39.917Z,99.90
2018-02-17T02:54:05.886Z,99.90
2018-02-17T02:56:31.874Z,99.90
2018-02-17T02:58:57.835Z,99.90
2018-02-17T03:01:24.562Z,99.90
2018-02-17T03:03:50.512Z,99.90
2018-02-17T03:06:16.509Z,99.90
2018-02-17T03:08:42.465Z,99.90
2018-02-17T03:11:08.424Z,99.90
2018-02-17T03:13:35.902Z,99.90
2018-02-17T03:16:02.635Z,99.90
2018-02-17T03:18:28.613Z,99.90
2018-02-17T03:20:54.603Z,99.90
2018-02-17T03:23:20.581Z,99.90
2018-02-17T03:25:47.305Z,99.90
2018-02-17T03:28:13.256Z,99.90
2018-02-17T03:30:39.238Z,99.90
2018-02-17T03:33:05.266Z,99.90
2018-02-17T03:35:31.953Z,99.90
2018-02-17T03:37:57.929Z,99.90
2018-02-17T03:40:24.644Z,99.90
2018-02-17T03:42:50.629Z,99.90
2018-02-17T03:45:16.589Z,99.90
2018-02-17T03:47:42.593Z,99.90
2018-02-17T03:50:09.330Z,99.90
2018-02-17T03:52:36.080Z,99.90
2018-02-17T03:55:02.778Z,99.90
2018-02-17T03:57:28.722Z,99.90
2018-02-17T03:59:54.700Z,99.90
2018-02-17T04:02:20.657Z,99.90
2018-02-17T04:04:47.349Z,99.90
2018-02-17T04:07:13.337Z,99.90
2018-02-17T04:09:40.034Z,99.90
2018-02-17T04:12:05.998Z,99.90
2018-02-17T04:14:31.981Z,99.90
2018-02-17T04:16:57.949Z,99.90
2018-02-17T04:19:24.112Z,99.90
2018-02-17T04:21:50.839Z,99.90
2018-02-17T04:24:16.793Z,99.90
2018-02-17T04:26:42.986Z,99.90
2018-02-17T04:29:08.953Z,99.90
2018-02-17T04:31:34.932Z,99.90
2018-02-17T04:34:01.641Z,99.90
2018-02-17T04:36:27.616Z,99.90
2018-02-17T04:38:54.896Z,99.90
2018-02-17T04:41:21.921Z,99.90
2018-02-17T04:44:02.943Z,99.90
2018-02-17T04:46:35.121Z,99.90
2018-02-17T04:49:16.824Z,99.90
2018-02-17T04:51:44.382Z,99.90
2018-02-17T04:54:16.069Z,99.90
2018-02-17T04:56:49.810Z,99.90
2018-02-17T04:59:18.721Z,99.90
2018-02-17T05:01:48.632Z,99.90
2018-02-17T05:04:16.728Z,99.90
2018-02-17T05:06:43.541Z,99.90
2018-02-17T05:09:09.521Z,99.90
2018-02-17T05:11:35.550Z,99.90
2018-02-17T05:17:10.956Z,99.90
2018-02-17T05:19:43.210Z,99.90
2018-02-17T05:22:24.925Z,99.90
2018-02-17T05:24:51.746Z,99.90
2018-02-17T05:27:18.476Z,99.90
2018-02-17T05:29:46.413Z,99.90
2018-02-17T05:32:12.370Z,99.90
2018-02-17T05:34:39.374Z,99.90
2018-02-17T05:37:05.358Z,99.90
2018-02-17T05:39:37.626Z,99.90
2018-02-17T05:42:21.444Z,99.90
2018-02-17T05:44:47.429Z,99.90
2018-02-17T05:47:15.305Z,99.90
2018-02-17T05:52:38.888Z,99.90
2018-02-17T05:55:04.946Z,99.90
2018-02-17T05:57:30.952Z,99.90
2018-02-17T05:59:56.897Z,99.90
2018-02-17T06:02:23.611Z,99.90
2018-02-17T06:04:49.597Z,99.90
2018-02-17T06:07:16.337Z,99.90
2018-02-17T06:09:43.094Z,99.90
2018-02-17T06:12:09.808Z,99.90
2018-02-17T06:14:35.770Z,99.90
2018-02-17T06:17:01.769Z,99.90
2018-02-17T06:19:27.718Z,99.90
2018-02-17T06:21:53.701Z,99.90
2018-02-17T06:24:20.386Z,99.90
2018-02-17T06:26:46.400Z,99.90
2018-02-17T06:29:12.392Z,99.90
2018-02-17T06:31:38.334Z,99.90
2018-02-17T06:34:04.284Z,99.90
2018-02-17T06:36:31.013Z,99.90
2018-02-17T06:38:56.957Z,99.90
2018-02-17T06:41:22.904Z,99.90
2018-02-17T06:43:48.901Z,99.90
2018-02-17T06:46:14.885Z,99.90
2018-02-17T06:48:41.642Z,99.90
2018-02-17T06:51:08.344Z,99.90
2018-02-17T06:53:34.324Z,99.90
2018-02-17T06:56:01.060Z,99.90
2018-02-17T06:58:27.004Z,99.90
2018-02-17T07:00:52.969Z,99.90
2018-02-17T07:03:19.706Z,99.90
2018-02-17T07:05:45.672Z,99.90
2018-02-17T07:08:11.620Z,99.90
2018-02-17T07:10:37.629Z,99.90
2018-02-17T07:13:04.334Z,99.90
2018-02-17T07:15:30.294Z,99.90
2018-02-17T07:17:56.288Z,99.90
2018-02-17T07:20:22.266Z,99.90
2018-02-17T07:22:48.225Z,99.90
2018-02-17T07:25:14.975Z,99.90
2018-02-17T07:27:40.989Z,99.90
2018-02-17T07:30:06.936Z,99.90
2018-02-17T07:32:32.923Z,99.90
2018-02-17T07:34:58.886Z,99.90
2018-02-17T07:37:24.868Z,99.90
2018-02-17T07:39:51.644Z,99.90
2018-02-17T07:42:17.672Z,99.90
2018-02-17T07:44:43.724Z,99.90
2018-02-17T07:47:09.677Z,99.90
2018-02-17T07:49:35.649Z,99.90
2018-02-17T07:52:02.373Z,99.90
2018-02-17T07:54:28.359Z,99.90
2018-02-17T07:56:54.367Z,99.90
2018-02-17T07:59:20.318Z,99.90
2018-02-17T08:01:47.089Z,99.90
2018-02-17T08:04:13.087Z,99.90
2018-02-17T08:06:39.037Z,99.90
2018-02-17T08:09:05.041Z,99.90
2018-02-17T08:11:30.994Z,99.90
2018-02-17T08:13:56.980Z,99.90
2018-02-17T08:16:22.932Z,99.90
2018-02-17T08:18:48.872Z,99.90
2018-02-17T08:21:14.866Z,99.90
2018-02-17T08:23:41.572Z,99.90
2018-02-17T08:26:07.544Z,99.90
2018-02-17T08:28:33.502Z,99.90
2018-02-17T08:31:00.268Z,99.90
2018-02-17T08:33:26.268Z,99.90
2018-02-17T08:35:52.253Z,99.90
2018-02-17T08:38:18.209Z,99.90
2018-02-17T08:40:44.259Z,99.90
2018-02-17T08:43:10.234Z,99.90
2018-02-17T08:45:36.929Z,99.90
2018-02-17T08:48:02.954Z,99.90
2018-02-17T08:50:28.929Z,99.90
2018-02-17T08:52:54.889Z,99.90
2018-02-17T08:55:21.624Z,99.90
2018-02-17T08:57:47.578Z,99.90
2018-02-17T09:00:14.318Z,99.90
2018-02-17T09:02:41.020Z,99.90
2018-02-17T09:05:07.005Z,99.90
2018-02-17T09:07:32.957Z,99.90
2018-02-17T09:09:59.654Z,99.90
2018-02-17T09:12:25.637Z,99.90
2018-02-17T09:14:51.606Z,99.90
2018-02-17T09:17:17.629Z,99.90
2018-02-17T09:19:44.320Z,99.90
2018-02-17T09:22:10.322Z,99.90
2018-02-17T09:24:36.274Z,99.90
2018-02-17T09:27:02.253Z,99.90
2018-02-17T09:29:28.204Z,99.90
2018-02-17T09:31:54.177Z,99.90
2018-02-17T09:34:20.168Z,99.90
2018-02-17T09:36:46.169Z,99.90
2018-02-17T09:39:12.182Z,99.90
2018-02-17T09:41:38.204Z,99.90
2018-02-17T09:44:04.893Z,99.90
2018-02-17T09:46:30.891Z,99.90
2018-02-17T09:48:57.573Z,99.90
2018-02-17T09:51:23.555Z,99.90
2018-02-17T09:53:49.560Z,99.90
2018-02-17T09:56:15.528Z,99.90
2018-02-17T09:58:41.509Z,99.90
2018-02-17T10:01:07.490Z,99.90
2018-02-17T10:03:33.469Z,99.90
2018-02-17T10:05:59.477Z,99.90
2018-02-17T10:08:25.447Z,99.90
2018-02-17T10:10:51.428Z,99.90
2018-02-17T10:13:17.431Z,99.90
2018-02-17T10:15:43.377Z,99.90
2018-02-17T10:18:09.367Z,99.90
2018-02-17T10:20:36.138Z,99.90
2018-02-17T10:23:02.086Z,99.90
2018-02-17T10:25:28.069Z,99.90
2018-02-17T10:27:54.026Z,99.90
2018-02-17T10:30:20.761Z,99.90
2018-02-17T10:32:48.197Z,99.90
2018-02-17T10:35:14.148Z,99.90
2018-02-17T10:37:40.146Z,99.90
2018-02-17T10:40:06.114Z,99.90
2018-02-17T10:42:32.102Z,99.90
2018-02-17T10:44:58.054Z,99.90
2018-02-17T10:47:24.036Z,99.90
2018-02-17T10:49:49.998Z,99.90
2018-02-17T10:52:16.704Z,99.90
2018-02-17T10:54:42.681Z,99.90
2018-02-17T10:57:08.775Z,99.90
2018-02-17T10:59:34.811Z,99.90
2018-02-17T11:02:00.781Z,99.90
2018-02-17T11:04:26.757Z,99.90
2018-02-17T11:06:52.703Z,99.90
2018-02-17T11:09:18.684Z,99.90
2018-02-17T11:11:44.675Z,99.90
2018-02-17T11:14:10.673Z,99.90
2018-02-17T11:16:37.390Z,99.90
2018-02-17T11:19:03.345Z,99.90
2018-02-17T11:21:29.343Z,99.90
2018-02-17T11:23:55.318Z,99.90
2018-02-17T11:26:21.305Z,99.90
2018-02-17T11:28:47.249Z,99.90
2018-02-17T11:31:13.231Z,99.90
2018-02-17T11:33:39.987Z,99.90
2018-02-17T11:36:06.696Z,99.90
2018-02-17T11:38:32.642Z,99.90
2018-02-17T11:40:58.626Z,99.90
2018-02-17T11:43:25.313Z,99.90
2018-02-17T11:45:51.300Z,99.90
2018-02-17T11:48:17.250Z,99.90
2018-02-17T11:50:43.990Z,99.90
2018-02-17T11:53:09.972Z,99.90
2018-02-17T11:55:35.997Z,99.90
2018-02-17T11:58:02.018Z,99.90
2018-02-17T12:00:27.964Z,99.90
2018-02-17T12:02:53.946Z,99.90
2018-02-17T12:05:19.892Z,99.90
2018-02-17T12:07:45.868Z,99.90
2018-02-17T12:10:11.902Z,99.90
2018-02-17T12:12:37.853Z,99.90
2018-02-17T12:15:03.841Z,99.90
2018-02-17T12:17:29.833Z,99.90
2018-02-17T12:19:55.790Z,99.90
2018-02-17T12:22:21.742Z,99.90
2018-02-17T12:24:47.733Z,99.90
2018-02-17T12:27:13.715Z,99.90
2018-02-17T12:29:39.713Z,99.90
2018-02-17T12:32:05.697Z,99.90
2018-02-17T12:34:31.710Z,99.90
2018-02-17T12:36:57.689Z,99.90
2018-02-17T12:39:24.454Z,99.90
2018-02-17T12:41:50.437Z,99.90
2018-02-17T12:44:16.410Z,99.90
2018-02-17T12:46:43.171Z,99.90
2018-02-17T12:49:09.864Z,99.90
2018-02-17T12:51:35.864Z,99.90
2018-02-17T12:54:01.825Z,99.90
2018-02-17T12:56:27.810Z,99.90
2018-02-17T12:58:54.616Z,99.90
2018-02-17T13:01:20.583Z,99.90
2018-02-17T13:03:46.572Z,99.90
2018-02-17T13:06:12.521Z,99.90
2018-02-17T13:08:38.478Z,99.90
2018-02-17T13:11:04.473Z,99.90
2018-02-17T13:13:30.519Z,99.90
2018-02-17T13:15:56.465Z,99.90
2018-02-17T13:18:22.413Z,99.90
2018-02-17T13:20:48.397Z,99.90
2018-02-17T13:23:15.091Z,99.90
2018-02-17T13:25:41.085Z,99.90
2018-02-17T13:28:07.781Z,99.90
2018-02-17T13:30:33.724Z,99.90
2018-02-17T13:32:59.741Z,99.90
2018-02-17T13:35:25.726Z,99.90
2018-02-17T13:37:51.745Z,99.90
2018-02-17T13:40:17.697Z,99.90
2018-02-17T13:42:43.691Z,99.90
2018-02-17T13:45:09.673Z,99.90
2018-02-17T13:47:35.621Z,99.90
2018-02-17T13:50:01.617Z,99.90
2018-02-17T13:52:27.625Z,99.90
2018-02-17T13:54:53.577Z,99.90
2018-02-17T13:57:19.557Z,99.90
2018-02-17T13:59:46.992Z,99.90
2018-02-17T14:02:12.975Z,99.90
2018-02-17T14:04:39.656Z,99.90
2018-02-17T14:07:05.654Z,99.90
2018-02-17T14:09:31.681Z,99.70
2018-02-17T14:11:59.136Z,97.70
2018-02-17T14:14:25.110Z,97.70
2018-02-17T14:16:51.847Z,95.80
2018-02-17T14:19:19.288Z,94.60
2018-02-17T14:21:45.275Z,94.60
2018-02-17T14:24:11.965Z,95.10
2018-02-17T14:26:37.904Z,95.10
2018-02-17T14:29:03.889Z,94.90
2018-02-17T14:31:29.910Z,95.90
2018-02-17T14:33:55.905Z,94.40
2018-02-17T14:36:21.861Z,95.20
2018-02-17T14:38:47.833Z,94.50
2018-02-17T14:41:13.787Z,93.30
2018-02-17T14:43:39.766Z,93.30
2018-02-17T14:46:05.732Z,92.60
2018-02-17T14:48:31.745Z,92.60
2018-02-17T14:50:57.753Z,92.60
2018-02-17T14:53:23.777Z,91.30
2018-02-17T14:55:49.750Z,91.20
2018-02-17T14:58:15.709Z,91.60
2018-02-17T15:00:41.694Z,91.40
2018-02-17T15:03:07.668Z,91.70
2018-02-17T15:05:33.642Z,91.70
2018-02-17T15:08:00.391Z,90.40
2018-02-17T15:10:27.121Z,91.10
2018-02-17T15:12:53.102Z,91.10
2018-02-17T15:15:19.038Z,91.10
2018-02-17T15:17:45.037Z,90.70
2018-02-17T15:20:11.750Z,90.80
2018-02-17T15:22:37.764Z,91.10
2018-02-17T15:25:03.778Z,91.90
2018-02-17T15:27:30.524Z,93.80
2018-02-17T15:29:56.545Z,93.80
2018-02-17T15:32:22.500Z,94.70
2018-02-17T15:34:49.221Z,96.00
2018-02-17T15:37:15.170Z,96.00
2018-02-17T15:39:41.284Z,95.80
2018-02-17T15:42:07.256Z,96.00
2018-02-17T15:44:33.272Z,96.60
2018-02-17T15:46:59.482Z,97.80
2018-02-17T15:49:25.635Z,98.40
2018-02-17T15:51:51.605Z,99.60
2018-02-17T15:54:18.373Z,99.90
2018-02-17T15:56:45.101Z,99.90
2018-02-17T15:59:11.793Z,99.90
2018-02-17T16:01:38.135Z,99.90
2018-02-17T16:04:04.250Z,99.90
2018-02-17T16:06:30.635Z,99.90
2018-02-17T16:08:56.850Z,99.90
2018-02-17T16:11:23.545Z,99.90
2018-02-17T16:13:49.496Z,99.90
2018-02-17T16:16:15.518Z,99.90
2018-02-17T16:18:41.478Z,99.90
2018-02-17T16:21:07.476Z,99.90
2018-02-17T16:23:33.482Z,99.90
2018-02-17T16:26:00.227Z,99.90
2018-02-17T16:28:26.271Z,99.90
2018-02-17T16:30:52.962Z,99.90
2018-02-17T16:33:18.959Z,99.90
2018-02-17T16:35:45.662Z,99.90
2018-02-17T16:38:11.741Z,99.90
2018-02-17T16:40:37.725Z,99.90
2018-02-17T16:43:03.753Z,99.90
2018-02-17T16:45:29.893Z,99.90
2018-02-17T16:47:55.928Z,99.90
2018-02-17T16:50:22.045Z,99.90
2018-02-17T16:52:48.740Z,99.90
2018-02-17T16:55:14.717Z,99.90
2018-02-17T16:57:42.221Z,99.90
2018-02-17T17:00:08.178Z,99.90
2018-02-17T17:02:34.198Z,99.90
2018-02-17T17:05:00.186Z,99.90
2018-02-17T17:07:26.186Z,99.90
2018-02-17T17:09:52.193Z,99.90
2018-02-17T17:12:18.221Z,99.90
2018-02-17T17:14:44.930Z,99.90
2018-02-17T17:17:10.881Z,99.90
2018-02-17T17:19:36.874Z,99.90
2018-02-17T17:22:02.868Z,99.90
2018-02-17T17:24:28.885Z,99.90
2018-02-17T17:26:54.869Z,99.90
2018-02-17T17:29:20.834Z,99.90
2018-02-17T17:31:46.826Z,99.90
2018-02-17T17:34:13.515Z,99.90
2018-02-17T17:36:39.510Z,99.90
2018-02-17T17:39:06.255Z,99.90
2018-02-17T17:41:32.232Z,99.90
2018-02-17T17:43:58.229Z,99.90
2018-02-17T17:46:24.214Z,99.90
2018-02-17T17:48:50.337Z,99.90
2018-02-17T17:51:16.373Z,99.90
2018-02-17T17:53:42.309Z,99.90
2018-02-17T17:56:08.308Z,99.90
2018-02-17T17:58:34.299Z,99.90
2018-02-17T18:01:00.326Z,99.90
2018-02-17T18:03:26.316Z,99.90
2018-02-17T18:05:52.329Z,99.90
2018-02-17T18:08:18.330Z,99.90
2018-02-17T18:10:44.311Z,99.90
2018-02-17T18:13:11.006Z,99.90
2018-02-17T18:15:37.741Z,99.90
2018-02-17T18:18:03.688Z,99.90
2018-02-17T18:20:30.418Z,99.90
2018-02-17T18:22:56.447Z,99.90
2018-02-17T18:25:23.880Z,99.90
2018-02-17T18:27:49.859Z,99.90
2018-02-17T18:30:15.835Z,99.90
2018-02-17T18:32:41.834Z,99.90
2018-02-17T18:35:07.813Z,99.90
2018-02-17T18:37:33.839Z,99.90
2018-02-17T18:40:00.589Z,99.90
2018-02-17T18:42:27.394Z,99.90
2018-02-17T18:44:53.361Z,99.90
2018-02-17T18:47:20.100Z,99.90
2018-02-17T18:49:46.050Z,99.90
2018-02-17T18:52:12.756Z,99.90
2018-02-17T18:54:38.733Z,99.90
2018-02-17T18:57:04.680Z,99.90
2018-02-17T18:59:31.427Z,99.90
2018-02-17T19:01:58.190Z,99.90
2018-02-17T19:04:24.952Z,99.90
2018-02-17T19:06:51.683Z,99.90
2018-02-17T19:09:17.648Z,99.90
2018-02-17T19:11:44.396Z,99.90
2018-02-17T19:14:11.125Z,99.90
2018-02-17T19:16:37.082Z,99.90
2018-02-17T19:19:03.806Z,99.90
2018-02-17T19:21:29.825Z,99.90
2018-02-17T19:23:56.454Z,99.90
2018-02-17T19:26:22.433Z,99.90
2018-02-17T19:28:49.134Z,99.90
2018-02-17T19:31:15.133Z,99.90
2018-02-17T19:33:41.833Z,99.90
2018-02-17T19:36:07.789Z,99.90
2018-02-17T19:38:33.784Z,99.90
2018-02-17T19:41:00.577Z,99.90
2018-02-17T19:43:26.593Z,99.90
2018-02-17T19:45:52.555Z,99.90
2018-02-17T19:48:18.497Z,99.90
2018-02-17T19:50:44.471Z,99.90
2018-02-17T19:53:11.212Z,99.90
2018-02-17T19:55:37.914Z,99.90
2018-02-17T19:58:03.937Z,99.90
2018-02-17T20:00:29.897Z,99.90
2018-02-17T20:02:55.913Z,99.90
2018-02-17T20:05:21.880Z,99.90
2018-02-17T20:07:47.829Z,99.90
2018-02-17T20:10:13.863Z,99.90
2018-02-17T20:12:39.822Z,99.90
2018-02-17T20:15:05.830Z,99.90
2018-02-17T20:17:31.819Z,99.90
2018-02-17T20:19:57.901Z,99.90
2018-02-17T20:22:23.867Z,99.90
2018-02-17T20:24:50.561Z,99.90
2018-02-17T20:27:16.626Z,99.90
2018-02-17T20:29:42.586Z,99.90
2018-02-17T20:32:09.325Z,99.90
2018-02-17T20:34:36.234Z,99.90
2018-02-17T20:37:02.237Z,99.90
2018-02-17T20:39:29.325Z,99.90
2018-02-17T20:41:55.559Z,99.90
2018-02-17T20:44:22.162Z,99.90
2018-02-17T20:46:48.256Z,99.90
2018-02-17T20:49:14.217Z,99.90
2018-02-17T20:51:40.201Z,99.90
2018-02-17T20:54:06.890Z,99.90
2018-02-17T20:56:33.422Z,99.90
2018-02-17T20:58:59.985Z,99.90
2018-02-17T21:01:26.099Z,99.90
2018-02-17T21:03:52.153Z,99.90
2018-02-17T21:06:18.133Z,99.90
2018-02-17T21:08:44.089Z,99.90
2018-02-17T21:11:10.081Z,99.90
2018-02-17T21:13:36.450Z,99.90
2018-02-17T21:16:02.762Z,99.90
2018-02-17T21:18:28.748Z,99.90
2018-02-17T21:20:54.751Z,99.90
2018-02-17T21:23:20.742Z,99.90
2018-02-17T21:25:47.484Z,99.90
2018-02-17T21:28:14.225Z,99.90
2018-02-17T21:30:40.228Z,99.90
2018-02-17T21:33:06.431Z,99.90
2018-02-17T21:35:33.158Z,99.90
2018-02-17T21:37:59.183Z,99.90
2018-02-17T21:40:25.161Z,99.90
2018-02-17T21:42:51.105Z,99.90
2018-02-17T21:45:17.096Z,99.90
2018-02-17T21:47:43.049Z,99.90
2018-02-17T21:50:10.161Z,99.90
2018-02-17T21:52:36.158Z,99.90
2018-02-17T21:55:02.890Z,99.90
2018-02-17T21:57:29.636Z,99.90
2018-02-17T21:59:55.648Z,99.90
2018-02-17T22:02:21.609Z,99.90
2018-02-17T22:04:47.652Z,99.90
2018-02-17T22:07:13.602Z,99.90
2018-02-17T22:09:40.330Z,99.90
2018-02-17T22:12:06.286Z,99.90
2018-02-17T22:14:32.317Z,99.90
2018-02-17T22:16:58.345Z,99.90
2018-02-17T22:19:24.317Z,99.90
2018-02-17T22:21:51.045Z,99.90
2018-02-17T22:24:17.323Z,99.90
2018-02-17T22:26:43.265Z,99.90
2018-02-17T22:29:09.257Z,99.90
2018-02-17T22:31:35.427Z,99.90
2018-02-17T22:34:01.448Z,99.90
2018-02-17T22:36:28.211Z,99.90
2018-02-17T22:38:54.929Z,99.90
2018-02-17T22:41:20.921Z,99.90
2018-02-17T22:43:46.883Z,99.90
2018-02-17T22:46:12.870Z,99.90
2018-02-17T22:48:39.566Z,99.90
2018-02-17T22:51:05.589Z,99.90
2018-02-17T22:53:31.566Z,99.90
2018-02-17T22:55:57.552Z,99.90
2018-02-17T22:58:23.549Z,99.90
2018-02-17T23:00:49.489Z,99.90
2018-02-17T23:03:15.464Z,99.90
2018-02-17T23:05:41.418Z,99.90
2018-02-17T23:08:07.406Z,99.90
2018-02-17T23:10:34.102Z,99.90
2018-02-17T23:13:00.071Z,99.90
2018-02-17T23:15:26.092Z,99.90
2018-02-17T23:17:52.029Z,99.90
2018-02-17T23:20:18.016Z,99.90
2018-02-17T23:22:43.965Z,99.90
2018-02-17T23:25:09.957Z,99.90
2018-02-17T23:27:36.724Z,99.90
2018-02-17T23:30:02.854Z,99.90
2018-02-17T23:32:28.849Z,99.90
2018-02-17T23:34:54.793Z,99.90
2018-02-17T23:37:20.746Z,99.90
2018-02-17T23:39:47.469Z,99.90
2018-02-17T23:42:13.409Z,99.90
2018-02-17T23:44:39.386Z,99.90
2018-02-17T23:47:06.106Z,99.90
2018-02-17T23:49:32.085Z,99.90
2018-02-17T23:51:58.792Z,99.90
2018-02-17T23:54:24.766Z,99.90
2018-02-17T23:56:51.458Z,99.90
2018-02-17T23:59:17.465Z,99.90
